RYR4MR EDDG-LEIB
Flight info
| Callsign | RYR4MR |
|---|---|
| Flight time | 2h 8m |
| Altitude | 36000 |
| Route | DOMEG3Z DOMEG N853 QATJA Y841 KENUM DCT ARCKY DCT GESLO DCT LIMGO N852 SUTAL DCT GTQ DCT POGOL DCT LASAT DCT MOROK DCT GILIR DCT GEVEA DCT INCUS DCT BALSI DCT RETNO DCT TUPOX DCT MTG DCT DIVKO DCT VATIR N852 PIVUS DCT SULID DCT DIMIB DCT POS |
| Aircraft | B738/M-SDE2E3FGHIRWXY/LB1 |
Departure
| Time | 2026-04-18 06:07 |
|---|---|
| Airport | Münster Osnabrück Airport (EDDG) |
Arrival
| Time | 2026-04-18 08:15 |
|---|---|
| Airport | Ibiza Airport (LEIB) |
| Time | Latitude | Longitude | Altitude | Speed | Heading |
|---|---|---|---|---|---|
| 2026-04-18 05:49 | 52.13205 | 7.69538 | 166 ft | 0 kts | 197° |
| 2026-04-18 06:02 | 52.13204 | 7.69537 | 166 ft | 0 kts | 212° |
| 2026-04-18 06:03 | 52.13206 | 7.69526 | 166 ft | 2 kts | 317° |
| 2026-04-18 06:03 | 52.13225 | 7.69499 | 166 ft | 7 kts | 317° |
| 2026-04-18 06:03 | 52.13240 | 7.69403 | 166 ft | 9 kts | 263° |
| 2026-04-18 06:03 | 52.13280 | 7.69308 | 166 ft | 11 kts | 336° |
| 2026-04-18 06:04 | 52.13357 | 7.69263 | 166 ft | 11 kts | 341° |
| 2026-04-18 06:04 | 52.13431 | 7.69243 | 166 ft | 10 kts | 23° |
| 2026-04-18 06:04 | 52.13469 | 7.69338 | 166 ft | 10 kts | 71° |
| 2026-04-18 06:04 | 52.13491 | 7.69445 | 166 ft | 10 kts | 71° |
| 2026-04-18 06:05 | 52.13521 | 7.69585 | 165 ft | 15 kts | 71° |
| 2026-04-18 06:05 | 52.13555 | 7.69749 | 165 ft | 14 kts | 72° |
| 2026-04-18 06:05 | 52.13589 | 7.69903 | 165 ft | 14 kts | 71° |
| 2026-04-18 06:05 | 52.13647 | 7.70024 | 165 ft | 13 kts | 23° |
| 2026-04-18 06:06 | 52.13735 | 7.70011 | 165 ft | 12 kts | 341° |
| 2026-04-18 06:06 | 52.13768 | 7.69928 | 165 ft | 5 kts | 251° |
| 2026-04-18 06:06 | 52.13766 | 7.69919 | 165 ft | 7 kts | 251° |
| 2026-04-18 06:06 | 52.13660 | 7.69424 | 166 ft | 86 kts | 251° |
| 2026-04-18 06:07 | 52.13384 | 7.68112 | 165 ft | 155 kts | 251° |
| 2026-04-18 06:07 | 52.13011 | 7.66333 | 761 ft | 167 kts | 251° |
| 2026-04-18 06:07 | 52.12459 | 7.64765 | 1675 ft | 166 kts | 222° |
| 2026-04-18 06:07 | 52.11384 | 7.64066 | 2267 ft | 176 kts | 187° |
| 2026-04-18 06:08 | 52.10111 | 7.64037 | 2725 ft | 192 kts | 184° |
| 2026-04-18 06:08 | 52.08734 | 7.63942 | 3224 ft | 206 kts | 186° |
| 2026-04-18 06:08 | 52.07262 | 7.63741 | 3753 ft | 220 kts | 187° |
| 2026-04-18 06:08 | 52.05663 | 7.63504 | 4239 ft | 238 kts | 187° |
| 2026-04-18 06:09 | 52.03968 | 7.63260 | 4817 ft | 252 kts | 187° |
| 2026-04-18 06:09 | 52.02180 | 7.63009 | 5443 ft | 264 kts | 187° |
| 2026-04-18 06:09 | 52.00345 | 7.62754 | 6186 ft | 270 kts | 187° |
| 2026-04-18 06:09 | 51.98481 | 7.62497 | 7005 ft | 273 kts | 187° |
| 2026-04-18 06:10 | 51.96577 | 7.62236 | 7845 ft | 275 kts | 187° |
| 2026-04-18 06:10 | 51.94661 | 7.61972 | 8651 ft | 278 kts | 187° |
| 2026-04-18 06:10 | 51.92745 | 7.61708 | 9425 ft | 281 kts | 187° |
| 2026-04-18 06:10 | 51.90774 | 7.61439 | 10183 ft | 285 kts | 187° |
| 2026-04-18 06:11 | 51.88793 | 7.61167 | 10779 ft | 294 kts | 187° |
| 2026-04-18 06:11 | 51.86705 | 7.60879 | 11197 ft | 310 kts | 187° |
| 2026-04-18 06:11 | 51.84486 | 7.60571 | 11630 ft | 325 kts | 187° |
| 2026-04-18 06:11 | 51.82217 | 7.60257 | 12054 ft | 339 kts | 187° |
| 2026-04-18 06:12 | 51.79831 | 7.59925 | 12475 ft | 353 kts | 187° |
| 2026-04-18 06:12 | 51.77336 | 7.59577 | 12900 ft | 366 kts | 187° |
| 2026-04-18 06:12 | 51.74725 | 7.59213 | 13334 ft | 378 kts | 187° |
| 2026-04-18 06:12 | 51.72101 | 7.58671 | 13844 ft | 386 kts | 193° |
| 2026-04-18 06:13 | 51.69563 | 7.57246 | 14412 ft | 389 kts | 210° |
| 2026-04-18 06:13 | 51.67296 | 7.54842 | 15024 ft | 393 kts | 218° |
| 2026-04-18 06:13 | 51.65122 | 7.52106 | 15620 ft | 399 kts | 221° |
| 2026-04-18 06:13 | 51.62969 | 7.49270 | 16214 ft | 404 kts | 221° |
| 2026-04-18 06:14 | 51.60766 | 7.46380 | 16817 ft | 409 kts | 221° |
| 2026-04-18 06:14 | 51.58553 | 7.43525 | 17410 ft | 414 kts | 220° |
| 2026-04-18 06:14 | 51.56284 | 7.40650 | 17999 ft | 418 kts | 220° |
| 2026-04-18 06:14 | 51.53962 | 7.37753 | 18600 ft | 422 kts | 219° |
| 2026-04-18 06:15 | 51.51641 | 7.34887 | 19194 ft | 426 kts | 219° |
| 2026-04-18 06:15 | 51.49278 | 7.31989 | 19801 ft | 430 kts | 218° |
| 2026-04-18 06:15 | 51.46906 | 7.29092 | 20453 ft | 432 kts | 218° |
| 2026-04-18 06:15 | 51.44491 | 7.26147 | 21132 ft | 432 kts | 219° |
| 2026-04-18 06:16 | 51.42135 | 7.23278 | 21802 ft | 433 kts | 219° |
| 2026-04-18 06:16 | 51.39720 | 7.20341 | 22487 ft | 433 kts | 219° |
| 2026-04-18 06:16 | 51.37330 | 7.17438 | 23173 ft | 432 kts | 219° |
| 2026-04-18 06:16 | 51.34936 | 7.14532 | 23868 ft | 431 kts | 219° |
| 2026-04-18 06:17 | 51.32557 | 7.11648 | 24572 ft | 430 kts | 219° |
| 2026-04-18 06:17 | 51.30201 | 7.08793 | 25202 ft | 430 kts | 219° |
| 2026-04-18 06:17 | 51.27799 | 7.05886 | 25785 ft | 431 kts | 219° |
| 2026-04-18 06:17 | 51.25427 | 7.03020 | 26363 ft | 431 kts | 219° |
| 2026-04-18 06:18 | 51.23057 | 7.00159 | 26939 ft | 430 kts | 219° |
| 2026-04-18 06:18 | 51.20650 | 6.97257 | 27530 ft | 430 kts | 219° |
| 2026-04-18 06:18 | 51.18291 | 6.94416 | 28084 ft | 429 kts | 219° |
| 2026-04-18 06:18 | 51.15894 | 6.91532 | 28617 ft | 429 kts | 219° |
| 2026-04-18 06:19 | 51.13523 | 6.88772 | 29137 ft | 428 kts | 216° |
| 2026-04-18 06:19 | 51.11004 | 6.86289 | 29634 ft | 429 kts | 210° |
| 2026-04-18 06:19 | 51.08217 | 6.84420 | 30110 ft | 432 kts | 201° |
| 2026-04-18 06:19 | 51.05320 | 6.83166 | 30538 ft | 434 kts | 196° |
| 2026-04-18 06:20 | 51.02380 | 6.82201 | 30959 ft | 435 kts | 194° |
| 2026-04-18 06:20 | 50.99418 | 6.81365 | 31383 ft | 435 kts | 193° |
| 2026-04-18 06:20 | 50.96465 | 6.80581 | 31802 ft | 434 kts | 193° |
| 2026-04-18 06:20 | 50.93506 | 6.79804 | 32220 ft | 434 kts | 193° |
| 2026-04-18 06:21 | 50.90546 | 6.79019 | 32644 ft | 432 kts | 193° |
| 2026-04-18 06:21 | 50.87620 | 6.78227 | 33035 ft | 431 kts | 193° |
| 2026-04-18 06:21 | 50.84742 | 6.77436 | 33398 ft | 431 kts | 193° |
| 2026-04-18 06:21 | 50.81856 | 6.76633 | 33748 ft | 430 kts | 194° |
| 2026-04-18 06:22 | 50.78910 | 6.75804 | 34066 ft | 431 kts | 194° |
| 2026-04-18 06:22 | 50.75980 | 6.74976 | 34385 ft | 431 kts | 194° |
| 2026-04-18 06:22 | 50.73042 | 6.74144 | 34697 ft | 430 kts | 194° |
| 2026-04-18 06:22 | 50.70089 | 6.73307 | 34991 ft | 430 kts | 194° |
| 2026-04-18 06:23 | 50.67155 | 6.72476 | 35282 ft | 429 kts | 194° |
| 2026-04-18 06:23 | 50.64253 | 6.71654 | 35570 ft | 429 kts | 194° |
| 2026-04-18 06:23 | 50.61342 | 6.70831 | 35860 ft | 428 kts | 194° |
| 2026-04-18 06:23 | 50.58443 | 6.70011 | 36149 ft | 426 kts | 194° |
| 2026-04-18 06:24 | 50.55557 | 6.69197 | 36438 ft | 425 kts | 194° |
| 2026-04-18 06:24 | 50.52634 | 6.68374 | 36758 ft | 423 kts | 194° |
| 2026-04-18 06:24 | 50.49793 | 6.67574 | 37124 ft | 421 kts | 194° |
| 2026-04-18 06:24 | 50.46901 | 6.66760 | 37516 ft | 419 kts | 194° |
| 2026-04-18 06:25 | 50.44069 | 6.65965 | 37880 ft | 417 kts | 194° |
| 2026-04-18 06:25 | 50.41224 | 6.65167 | 38135 ft | 417 kts | 194° |
| 2026-04-18 06:25 | 50.38364 | 6.64364 | 38185 ft | 419 kts | 194° |
| 2026-04-18 06:26 | 50.32583 | 6.62739 | 38185 ft | 425 kts | 194° |
| 2026-04-18 06:26 | 50.26773 | 6.61117 | 38184 ft | 425 kts | 194° |
| 2026-04-18 06:27 | 50.20940 | 6.59495 | 38181 ft | 425 kts | 194° |
| 2026-04-18 06:27 | 50.15114 | 6.57880 | 38180 ft | 427 kts | 194° |
| 2026-04-18 06:28 | 50.09260 | 6.56260 | 38179 ft | 426 kts | 194° |
| 2026-04-18 06:28 | 50.03404 | 6.54642 | 38178 ft | 426 kts | 194° |
| 2026-04-18 06:29 | 49.97559 | 6.53031 | 38181 ft | 426 kts | 194° |
| 2026-04-18 06:29 | 49.91701 | 6.51419 | 38179 ft | 426 kts | 194° |
| 2026-04-18 06:30 | 49.85865 | 6.49818 | 38184 ft | 427 kts | 194° |
| 2026-04-18 06:30 | 49.80045 | 6.48228 | 38188 ft | 427 kts | 194° |
| 2026-04-18 06:31 | 49.74188 | 6.46630 | 38188 ft | 428 kts | 194° |
| 2026-04-18 06:31 | 49.68279 | 6.45022 | 38189 ft | 427 kts | 194° |
| 2026-04-18 06:32 | 49.62416 | 6.43431 | 38190 ft | 428 kts | 194° |
| 2026-04-18 06:32 | 49.56544 | 6.41840 | 38189 ft | 427 kts | 194° |
| 2026-04-18 06:33 | 49.50661 | 6.40360 | 38187 ft | 430 kts | 190° |
| 2026-04-18 06:33 | 49.44636 | 6.40879 | 38191 ft | 442 kts | 169° |
| 2026-04-18 06:34 | 49.38816 | 6.44189 | 38187 ft | 447 kts | 161° |
| 2026-04-18 06:34 | 49.33131 | 6.48099 | 38184 ft | 448 kts | 159° |
| 2026-04-18 06:35 | 49.27426 | 6.52096 | 38185 ft | 449 kts | 160° |
| 2026-04-18 06:35 | 49.21759 | 6.56011 | 38181 ft | 449 kts | 160° |
| 2026-04-18 06:36 | 49.16060 | 6.59893 | 38178 ft | 449 kts | 160° |
| 2026-04-18 06:36 | 49.10316 | 6.63774 | 38181 ft | 449 kts | 160° |
| 2026-04-18 06:37 | 49.04589 | 6.67622 | 38176 ft | 448 kts | 160° |
| 2026-04-18 06:37 | 48.98786 | 6.70873 | 38175 ft | 444 kts | 171° |
| 2026-04-18 06:38 | 48.92685 | 6.71712 | 38176 ft | 438 kts | 184° |
| 2026-04-18 06:38 | 48.86575 | 6.71481 | 38181 ft | 437 kts | 186° |
| 2026-04-18 06:39 | 48.80541 | 6.71103 | 38179 ft | 437 kts | 186° |
| 2026-04-18 06:39 | 48.74463 | 6.70761 | 38182 ft | 438 kts | 186° |
| 2026-04-18 06:40 | 48.68368 | 6.70471 | 38183 ft | 438 kts | 185° |
| 2026-04-18 06:40 | 48.62290 | 6.70213 | 38181 ft | 438 kts | 185° |
| 2026-04-18 06:41 | 48.56141 | 6.69967 | 38181 ft | 439 kts | 185° |
| 2026-04-18 06:41 | 48.50072 | 6.69730 | 38180 ft | 438 kts | 185° |
| 2026-04-18 06:42 | 48.43928 | 6.69492 | 38185 ft | 438 kts | 185° |
| 2026-04-18 06:42 | 48.37786 | 6.69256 | 38180 ft | 439 kts | 185° |
| 2026-04-18 06:43 | 48.31675 | 6.69020 | 38186 ft | 440 kts | 185° |
| 2026-04-18 06:43 | 48.25516 | 6.68783 | 38185 ft | 440 kts | 185° |
| 2026-04-18 06:44 | 48.19381 | 6.68548 | 38186 ft | 439 kts | 185° |
| 2026-04-18 06:44 | 48.13242 | 6.68313 | 38196 ft | 439 kts | 185° |
| 2026-04-18 06:45 | 48.07140 | 6.68082 | 38189 ft | 439 kts | 185° |
| 2026-04-18 06:45 | 48.01009 | 6.67848 | 38195 ft | 441 kts | 185° |
| 2026-04-18 06:46 | 47.94853 | 6.67614 | 38196 ft | 441 kts | 185° |
| 2026-04-18 06:46 | 47.88714 | 6.67383 | 38195 ft | 440 kts | 185° |
| 2026-04-18 06:47 | 47.82625 | 6.67154 | 38192 ft | 440 kts | 185° |
| 2026-04-18 06:47 | 47.76503 | 6.66922 | 38193 ft | 441 kts | 185° |
| 2026-04-18 06:48 | 47.70292 | 6.66690 | 38192 ft | 441 kts | 185° |
| 2026-04-18 06:48 | 47.64153 | 6.66462 | 38193 ft | 440 kts | 185° |
| 2026-04-18 06:49 | 47.58034 | 6.66234 | 38185 ft | 441 kts | 185° |
| 2026-04-18 06:49 | 47.51827 | 6.66002 | 38173 ft | 442 kts | 185° |
| 2026-04-18 06:50 | 47.45662 | 6.65735 | 38171 ft | 441 kts | 187° |
| 2026-04-18 06:50 | 47.39716 | 6.63957 | 38174 ft | 433 kts | 206° |
| 2026-04-18 06:50 | 47.37055 | 6.61905 | 38177 ft | 430 kts | 217° |
| 2026-04-18 06:51 | 47.34649 | 6.59358 | 38183 ft | 427 kts | 221° |
| 2026-04-18 06:51 | 47.30040 | 6.53752 | 38178 ft | 425 kts | 224° |
| 2026-04-18 06:52 | 47.25568 | 6.48060 | 38177 ft | 425 kts | 224° |
| 2026-04-18 06:52 | 47.21100 | 6.42388 | 38397 ft | 424 kts | 224° |
| 2026-04-18 06:52 | 47.18852 | 6.39553 | 38193 ft | 426 kts | 224° |
| 2026-04-18 06:53 | 47.16605 | 6.36735 | 38180 ft | 421 kts | 224° |
| 2026-04-18 06:53 | 47.12176 | 6.31206 | 38234 ft | 425 kts | 223° |
| 2026-04-18 06:53 | 47.09887 | 6.28446 | 38408 ft | 427 kts | 220° |
| 2026-04-18 06:54 | 47.07464 | 6.25958 | 38632 ft | 429 kts | 214° |
| 2026-04-18 06:54 | 47.04818 | 6.23844 | 38832 ft | 431 kts | 208° |
| 2026-04-18 06:54 | 47.02034 | 6.22196 | 39043 ft | 433 kts | 201° |
| 2026-04-18 06:54 | 46.99163 | 6.21056 | 39179 ft | 437 kts | 193° |
| 2026-04-18 06:55 | 46.96104 | 6.20576 | 39185 ft | 442 kts | 185° |
| 2026-04-18 06:55 | 46.90008 | 6.20544 | 39185 ft | 441 kts | 183° |
| 2026-04-18 06:56 | 46.83857 | 6.20439 | 39187 ft | 441 kts | 185° |
| 2026-04-18 06:56 | 46.77737 | 6.19970 | 39191 ft | 442 kts | 187° |
| 2026-04-18 06:57 | 46.71554 | 6.19265 | 39190 ft | 441 kts | 188° |
| 2026-04-18 06:57 | 46.62366 | 6.18080 | 39196 ft | 441 kts | 188° |
| 2026-04-18 06:58 | 46.56303 | 6.17279 | 39199 ft | 441 kts | 188° |
| 2026-04-18 06:58 | 46.50142 | 6.16466 | 39196 ft | 441 kts | 188° |
| 2026-04-18 06:59 | 46.44041 | 6.15663 | 39192 ft | 442 kts | 188° |
| 2026-04-18 06:59 | 46.37915 | 6.14861 | 39184 ft | 440 kts | 188° |
| 2026-04-18 07:00 | 46.31757 | 6.14057 | 39181 ft | 441 kts | 188° |
| 2026-04-18 07:00 | 46.25639 | 6.13259 | 39181 ft | 441 kts | 188° |
| 2026-04-18 07:01 | 46.19546 | 6.12164 | 39182 ft | 440 kts | 192° |
| 2026-04-18 07:01 | 46.13515 | 6.10762 | 39181 ft | 439 kts | 192° |
| 2026-04-18 07:02 | 46.07498 | 6.09341 | 39182 ft | 440 kts | 192° |
| 2026-04-18 07:02 | 46.01431 | 6.07945 | 39179 ft | 440 kts | 192° |
| 2026-04-18 07:03 | 45.95380 | 6.06582 | 39181 ft | 440 kts | 192° |
| 2026-04-18 07:03 | 45.89282 | 6.05228 | 39178 ft | 441 kts | 192° |
| 2026-04-18 07:04 | 45.83257 | 6.03899 | 39179 ft | 441 kts | 192° |
| 2026-04-18 07:04 | 45.77185 | 6.02557 | 39172 ft | 442 kts | 192° |
| 2026-04-18 07:05 | 45.71071 | 6.01207 | 39041 ft | 442 kts | 192° |
| 2026-04-18 07:05 | 45.68043 | 6.00540 | 39186 ft | 441 kts | 192° |
| 2026-04-18 07:05 | 45.65008 | 5.99871 | 39176 ft | 444 kts | 192° |
| 2026-04-18 07:06 | 45.58881 | 5.98526 | 39178 ft | 441 kts | 192° |
| 2026-04-18 07:06 | 45.52800 | 5.97194 | 39177 ft | 442 kts | 192° |
| 2026-04-18 07:07 | 45.46724 | 5.95851 | 39190 ft | 440 kts | 193° |
| 2026-04-18 07:07 | 45.40691 | 5.94125 | 39203 ft | 443 kts | 195° |
| 2026-04-18 07:08 | 45.34674 | 5.92169 | 39216 ft | 443 kts | 196° |
| 2026-04-18 07:08 | 45.28628 | 5.90205 | 39219 ft | 443 kts | 196° |
| 2026-04-18 07:09 | 45.25611 | 5.89238 | 39326 ft | 443 kts | 195° |
| 2026-04-18 07:09 | 45.22588 | 5.88279 | 39223 ft | 442 kts | 195° |
| 2026-04-18 07:09 | 45.16643 | 5.86413 | 39229 ft | 441 kts | 195° |
| 2026-04-18 07:10 | 45.10605 | 5.84533 | 39232 ft | 443 kts | 195° |
| 2026-04-18 07:10 | 45.04557 | 5.82660 | 39228 ft | 444 kts | 195° |
| 2026-04-18 07:11 | 44.98547 | 5.80808 | 39233 ft | 443 kts | 195° |
| 2026-04-18 07:11 | 44.92491 | 5.78944 | 39242 ft | 446 kts | 195° |
| 2026-04-18 07:12 | 44.86435 | 5.77086 | 39207 ft | 441 kts | 195° |
| 2026-04-18 07:12 | 44.80438 | 5.75249 | 39196 ft | 443 kts | 195° |
| 2026-04-18 07:13 | 44.74378 | 5.73397 | 39189 ft | 443 kts | 195° |
| 2026-04-18 07:13 | 44.68324 | 5.71551 | 39186 ft | 444 kts | 195° |
| 2026-04-18 07:14 | 44.62293 | 5.69715 | 39179 ft | 443 kts | 195° |
| 2026-04-18 07:14 | 44.56269 | 5.67885 | 39172 ft | 444 kts | 195° |
| 2026-04-18 07:15 | 44.50150 | 5.66032 | 39169 ft | 443 kts | 195° |
| 2026-04-18 07:15 | 44.44124 | 5.64210 | 39171 ft | 444 kts | 195° |
| 2026-04-18 07:16 | 44.38064 | 5.62254 | 39164 ft | 444 kts | 199° |
| 2026-04-18 07:16 | 44.32237 | 5.59470 | 39162 ft | 441 kts | 204° |
| 2026-04-18 07:17 | 44.26519 | 5.56292 | 39158 ft | 441 kts | 205° |
| 2026-04-18 07:17 | 44.20847 | 5.53094 | 39152 ft | 441 kts | 205° |
| 2026-04-18 07:18 | 44.15086 | 5.49886 | 39142 ft | 441 kts | 205° |
| 2026-04-18 07:18 | 44.09364 | 5.46739 | 39144 ft | 441 kts | 205° |
| 2026-04-18 07:19 | 44.03659 | 5.43626 | 39135 ft | 442 kts | 205° |
| 2026-04-18 07:19 | 43.97889 | 5.40494 | 39134 ft | 442 kts | 205° |
| 2026-04-18 07:20 | 43.92146 | 5.37384 | 39125 ft | 442 kts | 204° |
| 2026-04-18 07:20 | 43.86517 | 5.34341 | 39114 ft | 441 kts | 204° |
| 2026-04-18 07:21 | 43.80765 | 5.31238 | 39108 ft | 441 kts | 204° |
| 2026-04-18 07:21 | 43.75044 | 5.28158 | 39102 ft | 441 kts | 204° |
| 2026-04-18 07:22 | 43.69278 | 5.25060 | 39105 ft | 442 kts | 204° |
| 2026-04-18 07:22 | 43.63543 | 5.21985 | 39103 ft | 442 kts | 204° |
| 2026-04-18 07:23 | 43.57806 | 5.18916 | 39103 ft | 442 kts | 204° |
| 2026-04-18 07:23 | 43.52021 | 5.15828 | 39106 ft | 442 kts | 204° |
| 2026-04-18 07:24 | 43.46289 | 5.12774 | 39104 ft | 442 kts | 204° |
| 2026-04-18 07:24 | 43.40543 | 5.09635 | 39107 ft | 441 kts | 207° |
| 2026-04-18 07:25 | 43.35142 | 5.05602 | 39105 ft | 438 kts | 215° |
| 2026-04-18 07:25 | 43.30119 | 5.00961 | 39096 ft | 437 kts | 218° |
| 2026-04-18 07:26 | 43.25108 | 4.96140 | 39088 ft | 436 kts | 218° |
| 2026-04-18 07:26 | 43.20140 | 4.91386 | 39096 ft | 436 kts | 218° |
| 2026-04-18 07:27 | 43.15116 | 4.86629 | 39095 ft | 438 kts | 217° |
| 2026-04-18 07:27 | 43.10112 | 4.81930 | 39095 ft | 437 kts | 217° |
| 2026-04-18 07:28 | 43.05112 | 4.77280 | 39095 ft | 438 kts | 216° |
| 2026-04-18 07:28 | 42.99849 | 4.73033 | 39096 ft | 439 kts | 212° |
| 2026-04-18 07:29 | 42.94486 | 4.69069 | 39094 ft | 439 kts | 211° |
| 2026-04-18 07:29 | 42.89183 | 4.65164 | 39099 ft | 439 kts | 211° |
| 2026-04-18 07:30 | 42.83846 | 4.61193 | 39103 ft | 438 kts | 212° |
| 2026-04-18 07:30 | 42.78502 | 4.57190 | 39098 ft | 439 kts | 212° |
| 2026-04-18 07:31 | 42.73163 | 4.53183 | 39104 ft | 439 kts | 212° |
| 2026-04-18 07:31 | 42.67844 | 4.49193 | 39101 ft | 439 kts | 212° |
| 2026-04-18 07:32 | 42.62505 | 4.45193 | 39110 ft | 439 kts | 212° |
| 2026-04-18 07:32 | 42.57130 | 4.41174 | 39106 ft | 439 kts | 212° |
| 2026-04-18 07:33 | 42.51783 | 4.37186 | 39117 ft | 439 kts | 212° |
| 2026-04-18 07:33 | 42.46463 | 4.33223 | 39110 ft | 439 kts | 211° |
| 2026-04-18 07:34 | 42.41107 | 4.29242 | 39116 ft | 440 kts | 211° |
| 2026-04-18 07:34 | 42.35755 | 4.25272 | 39116 ft | 439 kts | 211° |
| 2026-04-18 07:35 | 42.30410 | 4.21316 | 39125 ft | 439 kts | 211° |
| 2026-04-18 07:35 | 42.25036 | 4.17345 | 39117 ft | 438 kts | 211° |
| 2026-04-18 07:36 | 42.19718 | 4.13422 | 39125 ft | 439 kts | 211° |
| 2026-04-18 07:36 | 42.14363 | 4.09479 | 39125 ft | 439 kts | 211° |
| 2026-04-18 07:37 | 42.09019 | 4.05554 | 39114 ft | 438 kts | 211° |
| 2026-04-18 07:37 | 42.03636 | 4.01609 | 39113 ft | 439 kts | 211° |
| 2026-04-18 07:38 | 41.98271 | 3.97685 | 39112 ft | 440 kts | 211° |
| 2026-04-18 07:38 | 41.92920 | 3.93777 | 39113 ft | 440 kts | 211° |
| 2026-04-18 07:39 | 41.87514 | 3.89982 | 39112 ft | 438 kts | 210° |
| 2026-04-18 07:39 | 41.82076 | 3.86353 | 39118 ft | 438 kts | 209° |
| 2026-04-18 07:40 | 41.76622 | 3.82737 | 39116 ft | 439 kts | 209° |
| 2026-04-18 07:40 | 41.71167 | 3.79111 | 39122 ft | 439 kts | 210° |
| 2026-04-18 07:41 | 41.65691 | 3.75462 | 39127 ft | 439 kts | 210° |
| 2026-04-18 07:41 | 41.60219 | 3.71815 | 39125 ft | 439 kts | 210° |
| 2026-04-18 07:42 | 41.54759 | 3.68180 | 39127 ft | 439 kts | 210° |
| 2026-04-18 07:42 | 41.49342 | 3.64580 | 39130 ft | 439 kts | 210° |
| 2026-04-18 07:43 | 41.43880 | 3.60954 | 39132 ft | 439 kts | 210° |
| 2026-04-18 07:43 | 41.38415 | 3.57334 | 39132 ft | 439 kts | 210° |
| 2026-04-18 07:44 | 41.32948 | 3.53721 | 39136 ft | 438 kts | 210° |
| 2026-04-18 07:44 | 41.27490 | 3.50120 | 39140 ft | 439 kts | 210° |
| 2026-04-18 07:45 | 41.22068 | 3.46567 | 39137 ft | 439 kts | 208° |
| 2026-04-18 07:45 | 41.16353 | 3.43558 | 39141 ft | 443 kts | 199° |
| 2026-04-18 07:46 | 41.10373 | 3.41711 | 39142 ft | 445 kts | 194° |
| 2026-04-18 07:46 | 41.04316 | 3.40207 | 39143 ft | 445 kts | 194° |
| 2026-04-18 07:47 | 40.98195 | 3.38705 | 39146 ft | 445 kts | 194° |
| 2026-04-18 07:47 | 40.92117 | 3.37167 | 39146 ft | 445 kts | 194° |
| 2026-04-18 07:48 | 40.86081 | 3.35609 | 39146 ft | 445 kts | 194° |
| 2026-04-18 07:48 | 40.80006 | 3.34027 | 39150 ft | 445 kts | 194° |
| 2026-04-18 07:49 | 40.73961 | 3.32449 | 39148 ft | 445 kts | 194° |
| 2026-04-18 07:49 | 40.67883 | 3.30863 | 39147 ft | 445 kts | 194° |
| 2026-04-18 07:50 | 40.61830 | 3.29285 | 39148 ft | 445 kts | 194° |
| 2026-04-18 07:50 | 40.55780 | 3.27711 | 39152 ft | 445 kts | 194° |
| 2026-04-18 07:51 | 40.49680 | 3.26127 | 39148 ft | 444 kts | 194° |
| 2026-04-18 07:51 | 40.43601 | 3.24551 | 39149 ft | 444 kts | 194° |
| 2026-04-18 07:52 | 40.37569 | 3.22990 | 39151 ft | 445 kts | 194° |
| 2026-04-18 07:52 | 40.31474 | 3.21417 | 39150 ft | 444 kts | 194° |
| 2026-04-18 07:53 | 40.25457 | 3.19865 | 39152 ft | 444 kts | 194° |
| 2026-04-18 07:53 | 40.19365 | 3.18296 | 39152 ft | 445 kts | 194° |
| 2026-04-18 07:54 | 40.13299 | 3.16735 | 39154 ft | 445 kts | 194° |
| 2026-04-18 07:54 | 40.07244 | 3.15179 | 39151 ft | 445 kts | 194° |
| 2026-04-18 07:55 | 40.01203 | 3.13632 | 39151 ft | 444 kts | 194° |
| 2026-04-18 07:55 | 39.95138 | 3.11962 | 39149 ft | 443 kts | 198° |
| 2026-04-18 07:56 | 39.92192 | 3.10776 | 38599 ft | 445 kts | 203° |
| 2026-04-18 07:56 | 39.89331 | 3.09203 | 37729 ft | 445 kts | 208° |
| 2026-04-18 07:56 | 39.86607 | 3.07395 | 36882 ft | 446 kts | 211° |
| 2026-04-18 07:56 | 39.83902 | 3.05435 | 36024 ft | 447 kts | 213° |
| 2026-04-18 07:57 | 39.81224 | 3.03429 | 35171 ft | 448 kts | 213° |
| 2026-04-18 07:57 | 39.78495 | 3.01369 | 34307 ft | 449 kts | 213° |
| 2026-04-18 07:57 | 39.75817 | 2.99355 | 33529 ft | 451 kts | 213° |
| 2026-04-18 07:57 | 39.73098 | 2.97324 | 32748 ft | 451 kts | 212° |
| 2026-04-18 07:58 | 39.67665 | 2.93314 | 31203 ft | 452 kts | 211° |
| 2026-04-18 07:58 | 39.64936 | 2.91319 | 30433 ft | 452 kts | 211° |
| 2026-04-18 07:58 | 39.62204 | 2.89332 | 29670 ft | 452 kts | 211° |
| 2026-04-18 07:59 | 39.59453 | 2.87337 | 28913 ft | 452 kts | 211° |
| 2026-04-18 07:59 | 39.56710 | 2.85354 | 28162 ft | 451 kts | 211° |
| 2026-04-18 07:59 | 39.53994 | 2.83395 | 27418 ft | 451 kts | 211° |
| 2026-04-18 07:59 | 39.51259 | 2.81425 | 26669 ft | 450 kts | 211° |
| 2026-04-18 08:00 | 39.48528 | 2.79460 | 25922 ft | 449 kts | 211° |
| 2026-04-18 08:00 | 39.45866 | 2.77435 | 25179 ft | 447 kts | 214° |
| 2026-04-18 08:00 | 39.43380 | 2.75057 | 24434 ft | 444 kts | 222° |
| 2026-04-18 08:00 | 39.41186 | 2.72307 | 23699 ft | 441 kts | 228° |
| 2026-04-18 08:01 | 39.39154 | 2.69353 | 22957 ft | 439 kts | 231° |
| 2026-04-18 08:01 | 39.37226 | 2.66333 | 22239 ft | 437 kts | 233° |
| 2026-04-18 08:01 | 39.35338 | 2.63277 | 21562 ft | 434 kts | 233° |
| 2026-04-18 08:01 | 39.33485 | 2.60250 | 20896 ft | 431 kts | 233° |
| 2026-04-18 08:02 | 39.31630 | 2.57228 | 20238 ft | 428 kts | 233° |
| 2026-04-18 08:02 | 39.29784 | 2.54235 | 19577 ft | 425 kts | 233° |
| 2026-04-18 08:02 | 39.27956 | 2.51290 | 18919 ft | 422 kts | 233° |
| 2026-04-18 08:02 | 39.26332 | 2.48175 | 18267 ft | 417 kts | 243° |
| 2026-04-18 08:03 | 39.25121 | 2.44840 | 17623 ft | 412 kts | 250° |
| 2026-04-18 08:03 | 39.24137 | 2.41430 | 16980 ft | 408 kts | 253° |
| 2026-04-18 08:03 | 39.23212 | 2.37995 | 16344 ft | 405 kts | 253° |
| 2026-04-18 08:03 | 39.22312 | 2.34564 | 15719 ft | 401 kts | 254° |
| 2026-04-18 08:04 | 39.21520 | 2.31147 | 15100 ft | 397 kts | 256° |
| 2026-04-18 08:04 | 39.20793 | 2.27795 | 14491 ft | 393 kts | 256° |
| 2026-04-18 08:04 | 39.20076 | 2.24395 | 13871 ft | 390 kts | 256° |
| 2026-04-18 08:04 | 39.19379 | 2.21061 | 13263 ft | 386 kts | 257° |
| 2026-04-18 08:05 | 39.18685 | 2.17738 | 12655 ft | 383 kts | 257° |
| 2026-04-18 08:05 | 39.18001 | 2.14479 | 12340 ft | 371 kts | 257° |
| 2026-04-18 08:05 | 39.17335 | 2.11318 | 12093 ft | 359 kts | 257° |
| 2026-04-18 08:05 | 39.16699 | 2.08312 | 11848 ft | 348 kts | 257° |
| 2026-04-18 08:06 | 39.15927 | 2.05402 | 11598 ft | 339 kts | 246° |
| 2026-04-18 08:06 | 39.14806 | 2.02772 | 11356 ft | 330 kts | 240° |
| 2026-04-18 08:06 | 39.13639 | 2.00296 | 11112 ft | 322 kts | 240° |
| 2026-04-18 08:06 | 39.12506 | 1.97842 | 10864 ft | 314 kts | 242° |
| 2026-04-18 08:07 | 39.11443 | 1.95433 | 10618 ft | 306 kts | 243° |
| 2026-04-18 08:07 | 39.10415 | 1.93060 | 10371 ft | 300 kts | 243° |
| 2026-04-18 08:07 | 39.09414 | 1.90742 | 10126 ft | 294 kts | 243° |
| 2026-04-18 08:07 | 39.08422 | 1.88478 | 9849 ft | 289 kts | 242° |
| 2026-04-18 08:08 | 39.07462 | 1.86251 | 9514 ft | 287 kts | 243° |
| 2026-04-18 08:08 | 39.06516 | 1.83984 | 9192 ft | 282 kts | 244° |
| 2026-04-18 08:08 | 39.05623 | 1.81794 | 8839 ft | 278 kts | 244° |
| 2026-04-18 08:08 | 39.04718 | 1.79567 | 8344 ft | 280 kts | 244° |
| 2026-04-18 08:09 | 39.03825 | 1.77376 | 7722 ft | 281 kts | 244° |
| 2026-04-18 08:09 | 39.02912 | 1.75152 | 7101 ft | 279 kts | 243° |
| 2026-04-18 08:09 | 39.02016 | 1.72973 | 6485 ft | 276 kts | 243° |
| 2026-04-18 08:09 | 39.01130 | 1.70817 | 5941 ft | 270 kts | 243° |
| 2026-04-18 08:10 | 39.00276 | 1.68739 | 5446 ft | 264 kts | 243° |
| 2026-04-18 08:10 | 38.99425 | 1.66670 | 4947 ft | 258 kts | 243° |
| 2026-04-18 08:10 | 38.98595 | 1.64653 | 4549 ft | 249 kts | 243° |
| 2026-04-18 08:10 | 38.97805 | 1.62736 | 4221 ft | 240 kts | 243° |
| 2026-04-18 08:11 | 38.97039 | 1.60876 | 3887 ft | 232 kts | 243° |
| 2026-04-18 08:11 | 38.96304 | 1.59093 | 3569 ft | 225 kts | 243° |
| 2026-04-18 08:11 | 38.95585 | 1.57351 | 3280 ft | 216 kts | 242° |
| 2026-04-18 08:11 | 38.94894 | 1.55678 | 2969 ft | 209 kts | 242° |
| 2026-04-18 08:12 | 38.94217 | 1.54039 | 2684 ft | 206 kts | 242° |
| 2026-04-18 08:12 | 38.93553 | 1.52430 | 2406 ft | 204 kts | 242° |
| 2026-04-18 08:12 | 38.92911 | 1.50878 | 2127 ft | 190 kts | 242° |
| 2026-04-18 08:12 | 38.92314 | 1.49436 | 1881 ft | 178 kts | 242° |
| 2026-04-18 08:13 | 38.91758 | 1.48092 | 1651 ft | 165 kts | 242° |
| 2026-04-18 08:13 | 38.91239 | 1.46840 | 1439 ft | 156 kts | 241° |
| 2026-04-18 08:13 | 38.90729 | 1.45610 | 1229 ft | 153 kts | 242° |
| 2026-04-18 08:13 | 38.90232 | 1.44410 | 1026 ft | 153 kts | 242° |
| 2026-04-18 08:14 | 38.89730 | 1.43194 | 822 ft | 154 kts | 242° |
| 2026-04-18 08:14 | 38.89234 | 1.41995 | 630 ft | 153 kts | 241° |
| 2026-04-18 08:14 | 38.88721 | 1.40793 | 419 ft | 154 kts | 242° |
| 2026-04-18 08:14 | 38.88213 | 1.39568 | 194 ft | 154 kts | 242° |
| 2026-04-18 08:15 | 38.87722 | 1.38383 | 46 ft | 148 kts | 243° |
| 2026-04-18 08:15 | 38.87318 | 1.37401 | 28 ft | 85 kts | 244° |
| 2026-04-18 08:15 | 38.87129 | 1.36926 | 28 ft | 43 kts | 252° |
| 2026-04-18 08:15 | 38.87100 | 1.36674 | 28 ft | 20 kts | 271° |
| 2026-04-18 08:16 | 38.87132 | 1.36560 | 28 ft | 12 kts | 349° |
| 2026-04-18 08:16 | 38.87192 | 1.36627 | 28 ft | 11 kts | 62° |
| 2026-04-18 08:16 | 38.87228 | 1.36715 | 28 ft | 11 kts | 62° |
| 2026-04-18 08:16 | 38.87264 | 1.36800 | 28 ft | 10 kts | 62° |
| 2026-04-18 08:17 | 38.87312 | 1.36845 | 28 ft | 9 kts | 342° |
| 2026-04-18 08:17 | 38.87372 | 1.36809 | 28 ft | 9 kts | 334° |
| 2026-04-18 08:17 | 38.87429 | 1.36790 | 28 ft | 8 kts | 27° |
| 2026-04-18 08:17 | 38.87465 | 1.36832 | 28 ft | 6 kts | 3° |
| 2026-04-18 08:18 | 38.87503 | 1.36812 | 28 ft | 4 kts | 348° |
| 2026-04-18 08:18 | 38.87514 | 1.36811 | 28 ft | 0 kts | 347° |
| 2026-04-18 08:18 | 38.87515 | 1.36810 | 28 ft | 0 kts | 334° |
| 2026-04-18 08:18 | 38.87516 | 1.36809 | 28 ft | 0 kts | 333° |